sensor_id;sensor_type;location;lat;lon;timestamp;pressure;altitude;pressure_sealevel;temperature;humidity
20115;BME280;10218;42.874;25.320;2023-09-07T00:01:00;97692.31;;;18.33;100.00
20115;BME280;10218;42.874;25.320;2023-09-07T00:03:31;97717.06;;;18.17;100.00
20115;BME280;10218;42.874;25.320;2023-09-07T00:05:58;97720.16;;;18.14;100.00
20115;BME280;10218;42.874;25.320;2023-09-07T00:08:25;97721.63;;;18.10;100.00
20115;BME280;10218;42.874;25.320;2023-09-07T00:10:53;97727.22;;;18.02;100.00
20115;BME280;10218;42.874;25.320;2023-09-07T00:13:19;97735.94;;;18.04;100.00
20115;BME280;10218;42.874;25.320;2023-09-07T00:15:46;97723.28;;;18.24;100.00
20115;BME280;10218;42.874;25.320;2023-09-07T00:18:14;97731.00;;;18.27;100.00
20115;BME280;10218;42.874;25.320;2023-09-07T00:20:42;97715.56;;;18.08;100.00
20115;BME280;10218;42.874;25.320;2023-09-07T00:23:09;97713.75;;;18.28;100.00
20115;BME280;10218;42.874;25.320;2023-09-07T00:25:37;97718.72;;;18.31;100.00
20115;BME280;10218;42.874;25.320;2023-09-07T00:28:04;97718.94;;;18.36;100.00
20115;BME280;10218;42.874;25.320;2023-09-07T00:30:31;97723.94;;;18.26;100.00
20115;BME280;10218;42.874;25.320;2023-09-07T00:32:58;97710.81;;;18.30;100.00
20115;BME280;10218;42.874;25.320;2023-09-07T00:35:25;97716.44;;;18.22;100.00
20115;BME280;10218;42.874;25.320;2023-09-07T00:37:52;97718.09;;;18.43;100.00
20115;BME280;10218;42.874;25.320;2023-09-07T00:40:22;97718.50;;;18.39;100.00
20115;BME280;10218;42.874;25.320;2023-09-07T00:42:49;97709.78;;;18.51;100.00
20115;BME280;10218;42.874;25.320;2023-09-07T00:45:16;97707.09;;;18.37;100.00
20115;BME280;10218;42.874;25.320;2023-09-07T00:47:44;97721.22;;;18.13;100.00
20115;BME280;10218;42.874;25.320;2023-09-07T00:50:12;97718.53;;;18.13;100.00
20115;BME280;10218;42.874;25.320;2023-09-07T00:52:44;97729.72;;;18.04;100.00
20115;BME280;10218;42.874;25.320;2023-09-07T00:55:12;97721.63;;;18.10;100.00
20115;BME280;10218;42.874;25.320;2023-09-07T00:57:40;97718.06;;;18.10;100.00
20115;BME280;10218;42.874;25.320;2023-09-07T01:00:10;97723.06;;;18.00;100.00
20115;BME280;10218;42.874;25.320;2023-09-07T01:02:37;97715.16;;;18.24;100.00
20115;BME280;10218;42.874;25.320;2023-09-07T01:05:04;97717.62;;;17.93;100.00
20115;BME280;10218;42.874;25.320;2023-09-07T01:07:54;97716.75;;;17.73;100.00
20115;BME280;10218;42.874;25.320;2023-09-07T01:10:23;97719.81;;;17.57;100.00
20115;BME280;10218;42.874;25.320;2023-09-07T01:12:51;97711.12;;;17.74;100.00
20115;BME280;10218;42.874;25.320;2023-09-07T01:15:18;97712.03;;;17.94;100.00
20115;BME280;10218;42.874;25.320;2023-09-07T01:17:45;97707.00;;;17.78;100.00
20115;BME280;10218;42.874;25.320;2023-09-07T01:20:13;97708.84;;;17.71;100.00
20115;BME280;10218;42.874;25.320;2023-09-07T01:22:44;97704.88;;;17.61;100.00
20115;BME280;10218;42.874;25.320;2023-09-07T01:25:12;97701.97;;;17.62;100.00
20115;BME280;10218;42.874;25.320;2023-09-07T01:27:40;97723.13;;;17.52;100.00
20115;BME280;10218;42.874;25.320;2023-09-07T01:30:07;97712.91;;;17.54;100.00
20115;BME280;10218;42.874;25.320;2023-09-07T01:32:35;97710.09;;;17.62;100.00
20115;BME280;10218;42.874;25.320;2023-09-07T01:35:04;97708.53;;;17.53;100.00
20115;BME280;10218;42.874;25.320;2023-09-07T01:37:33;97716.53;;;17.61;100.00
20115;BME280;10218;42.874;25.320;2023-09-07T01:40:02;97715.09;;;17.78;100.00
20115;BME280;10218;42.874;25.320;2023-09-07T01:42:34;97709.69;;;17.78;100.00
20115;BME280;10218;42.874;25.320;2023-09-07T01:45:01;97713.44;;;17.84;100.00
20115;BME280;10218;42.874;25.320;2023-09-07T01:47:28;97715.75;;;17.93;100.00
20115;BME280;10218;42.874;25.320;2023-09-07T01:49:55;97705.56;;;17.89;100.00
20115;BME280;10218;42.874;25.320;2023-09-07T01:52:23;97721.44;;;18.18;100.00
20115;BME280;10218;42.874;25.320;2023-09-07T01:54:50;97711.88;;;18.22;100.00
20115;BME280;10218;42.874;25.320;2023-09-07T01:57:17;97719.56;;;18.25;100.00
20115;BME280;10218;42.874;25.320;2023-09-07T01:59:45;97727.63;;;17.92;100.00
20115;BME280;10218;42.874;25.320;2023-09-07T02:02:12;97726.75;;;17.79;100.00
20115;BME280;10218;42.874;25.320;2023-09-07T02:04:39;97725.97;;;17.91;100.00
20115;BME280;10218;42.874;25.320;2023-09-07T02:07:07;97734.84;;;17.79;100.00
20115;BME280;10218;42.874;25.320;2023-09-07T02:09:34;97730.47;;;17.78;100.00
20115;BME280;10218;42.874;25.320;2023-09-07T02:12:02;97726.34;;;17.82;100.00
20115;BME280;10218;42.874;25.320;2023-09-07T02:14:30;97726.53;;;17.67;100.00
20115;BME280;10218;42.874;25.320;2023-09-07T02:16:58;97723.22;;;17.72;100.00
20115;BME280;10218;42.874;25.320;2023-09-07T02:19:25;97726.94;;;17.71;100.00
20115;BME280;10218;42.874;25.320;2023-09-07T02:21:52;97732.72;;;17.68;100.00
20115;BME280;10218;42.874;25.320;2023-09-07T02:24:21;97734.88;;;17.31;100.00
20115;BME280;10218;42.874;25.320;2023-09-07T02:26:48;97728.59;;;17.24;100.00
20115;BME280;10218;42.874;25.320;2023-09-07T02:29:15;97748.59;;;17.36;100.00
20115;BME280;10218;42.874;25.320;2023-09-07T02:31:42;97740.69;;;17.35;100.00
20115;BME280;10218;42.874;25.320;2023-09-07T02:34:09;97737.19;;;17.41;100.00
20115;BME280;10218;42.874;25.320;2023-09-07T02:36:37;97733.69;;;17.47;100.00
20115;BME280;10218;42.874;25.320;2023-09-07T02:39:04;97721.94;;;17.20;100.00
20115;BME280;10218;42.874;25.320;2023-09-07T02:41:32;97728.34;;;17.19;100.00
20115;BME280;10218;42.874;25.320;2023-09-07T02:43:59;97727.69;;;17.51;100.00
20115;BME280;10218;42.874;25.320;2023-09-07T02:46:26;97727.78;;;17.78;100.00
20115;BME280;10218;42.874;25.320;2023-09-07T02:48:53;97727.75;;;17.65;100.00
20115;BME280;10218;42.874;25.320;2023-09-07T02:51:24;97732.34;;;17.71;100.00
20115;BME280;10218;42.874;25.320;2023-09-07T02:53:53;97739.66;;;17.77;100.00
20115;BME280;10218;42.874;25.320;2023-09-07T02:56:20;97733.69;;;17.53;100.00
20115;BME280;10218;42.874;25.320;2023-09-07T02:58:47;97738.59;;;17.30;100.00
20115;BME280;10218;42.874;25.320;2023-09-07T03:01:15;97735.09;;;17.36;100.00
20115;BME280;10218;42.874;25.320;2023-09-07T03:03:46;97728.91;;;17.08;100.00
20115;BME280;10218;42.874;25.320;2023-09-07T03:06:14;97737.19;;;17.00;100.00
20115;BME280;10218;42.874;25.320;2023-09-07T03:08:43;97728.53;;;17.11;100.00
20115;BME280;10218;42.874;25.320;2023-09-07T03:11:11;97731.59;;;17.01;100.00
20115;BME280;10218;42.874;25.320;2023-09-07T03:13:38;97732.31;;;17.23;100.00
20115;BME280;10218;42.874;25.320;2023-09-07T03:16:06;97740.97;;;17.05;100.00
20115;BME280;10218;42.874;25.320;2023-09-07T03:18:33;97734.63;;;16.92;100.00
20115;BME280;10218;42.874;25.320;2023-09-07T03:21:02;97743.59;;;16.71;100.00
20115;BME280;10218;42.874;25.320;2023-09-07T03:23:30;97739.94;;;16.79;100.00
20115;BME280;10218;42.874;25.320;2023-09-07T03:25:58;97753.34;;;16.65;100.00
20115;BME280;10218;42.874;25.320;2023-09-07T03:28:26;97751.34;;;16.53;100.00
20115;BME280;10218;42.874;25.320;2023-09-07T03:30:54;97759.87;;;16.56;100.00
20115;BME280;10218;42.874;25.320;2023-09-07T03:33:23;97759.13;;;16.62;100.00
20115;BME280;10218;42.874;25.320;2023-09-07T03:35:50;97753.37;;;16.72;100.00
20115;BME280;10218;42.874;25.320;2023-09-07T03:38:18;97757.34;;;16.76;100.00
20115;BME280;10218;42.874;25.320;2023-09-07T03:40:46;97765.94;;;16.58;100.00
20115;BME280;10218;42.874;25.320;2023-09-07T03:43:13;97755.25;;;16.72;100.00
20115;BME280;10218;42.874;25.320;2023-09-07T03:45:40;97750.56;;;16.80;100.00
20115;BME280;10218;42.874;25.320;2023-09-07T03:48:08;97759.16;;;16.97;100.00
20115;BME280;10218;42.874;25.320;2023-09-07T03:50:37;97760.87;;;17.04;100.00
20115;BME280;10218;42.874;25.320;2023-09-07T03:53:04;97752.00;;;17.10;100.00
20115;BME280;10218;42.874;25.320;2023-09-07T03:55:40;97762.00;;;17.17;100.00
20115;BME280;10218;42.874;25.320;2023-09-07T03:58:11;97748.75;;;16.94;100.00
20115;BME280;10218;42.874;25.320;2023-09-07T04:00:40;97759.31;;;17.17;100.00
20115;BME280;10218;42.874;25.320;2023-09-07T04:03:08;97748.59;;;17.02;100.00
20115;BME280;10218;42.874;25.320;2023-09-07T04:05:38;97752.47;;;17.27;100.00
20115;BME280;10218;42.874;25.320;2023-09-07T04:08:06;97760.09;;;17.17;100.00
20115;BME280;10218;42.874;25.320;2023-09-07T04:10:37;97763.97;;;17.01;100.00
20115;BME280;10218;42.874;25.320;2023-09-07T04:13:05;97758.38;;;17.03;100.00
20115;BME280;10218;42.874;25.320;2023-09-07T04:15:45;97772.97;;;16.81;100.00
20115;BME280;10218;42.874;25.320;2023-09-07T04:18:13;97770.47;;;16.58;100.00
20115;BME280;10218;42.874;25.320;2023-09-07T04:20:43;97779.75;;;16.70;100.00
20115;BME280;10218;42.874;25.320;2023-09-07T04:23:10;97777.09;;;16.55;100.00
20115;BME280;10218;42.874;25.320;2023-09-07T04:25:38;97775.50;;;16.89;100.00
20115;BME280;10218;42.874;25.320;2023-09-07T04:28:08;97782.72;;;16.82;100.00
20115;BME280;10218;42.874;25.320;2023-09-07T04:30:39;97773.78;;;16.81;100.00
20115;BME280;10218;42.874;25.320;2023-09-07T04:33:10;97774.50;;;16.90;100.00
20115;BME280;10218;42.874;25.320;2023-09-07T04:35:38;97776.28;;;16.83;100.00
20115;BME280;10218;42.874;25.320;2023-09-07T04:38:05;97776.16;;;16.91;100.00
20115;BME280;10218;42.874;25.320;2023-09-07T04:40:33;97768.78;;;17.06;100.00
20115;BME280;10218;42.874;25.320;2023-09-07T04:43:00;97773.47;;;17.25;100.00
20115;BME280;10218;42.874;25.320;2023-09-07T04:45:27;97778.28;;;17.02;100.00
20115;BME280;10218;42.874;25.320;2023-09-07T04:47:54;97778.78;;;17.12;100.00
20115;BME280;10218;42.874;25.320;2023-09-07T04:50:21;97777.47;;;17.42;100.00
20115;BME280;10218;42.874;25.320;2023-09-07T04:52:48;97780.91;;;17.23;100.00
20115;BME280;10218;42.874;25.320;2023-09-07T04:55:16;97781.31;;;17.20;100.00
20115;BME280;10218;42.874;25.320;2023-09-07T04:57:43;97787.53;;;17.14;100.00
20115;BME280;10218;42.874;25.320;2023-09-07T05:00:10;97784.16;;;17.05;100.00
20115;BME280;10218;42.874;25.320;2023-09-07T05:02:38;97787.81;;;17.32;100.00
20115;BME280;10218;42.874;25.320;2023-09-07T05:05:08;97782.97;;;17.56;100.00
20115;BME280;10218;42.874;25.320;2023-09-07T05:07:35;97792.81;;;17.70;100.00
20115;BME280;10218;42.874;25.320;2023-09-07T05:10:03;97794.31;;;17.79;100.00
20115;BME280;10218;42.874;25.320;2023-09-07T05:12:30;97793.47;;;17.78;100.00
20115;BME280;10218;42.874;25.320;2023-09-07T05:14:58;97797.91;;;17.99;100.00
20115;BME280;10218;42.874;25.320;2023-09-07T05:17:27;97795.97;;;17.80;100.00
20115;BME280;10218;42.874;25.320;2023-09-07T05:19:57;97787.00;;;17.73;100.00
20115;BME280;10218;42.874;25.320;2023-09-07T05:22:24;97796.16;;;17.72;100.00
20115;BME280;10218;42.874;25.320;2023-09-07T05:24:53;97794.53;;;17.77;100.00
20115;BME280;10218;42.874;25.320;2023-09-07T05:27:20;97770.28;;;18.10;100.00
20115;BME280;10218;42.874;25.320;2023-09-07T05:29:47;97802.59;;;18.38;100.00
20115;BME280;10218;42.874;25.320;2023-09-07T05:32:15;97798.09;;;18.78;100.00
20115;BME280;10218;42.874;25.320;2023-09-07T05:34:42;97806.81;;;18.87;100.00
20115;BME280;10218;42.874;25.320;2023-09-07T05:37:12;97801.56;;;18.46;100.00
20115;BME280;10218;42.874;25.320;2023-09-07T05:39:39;97805.16;;;18.79;100.00
20115;BME280;10218;42.874;25.320;2023-09-07T05:42:06;97805.94;;;19.26;100.00
20115;BME280;10218;42.874;25.320;2023-09-07T05:44:33;97797.59;;;19.20;100.00
20115;BME280;10218;42.874;25.320;2023-09-07T05:47:02;97806.72;;;19.59;100.00
20115;BME280;10218;42.874;25.320;2023-09-07T05:49:29;97806.09;;;19.57;100.00
20115;BME280;10218;42.874;25.320;2023-09-07T05:51:56;97813.78;;;19.67;100.00
20115;BME280;10218;42.874;25.320;2023-09-07T05:54:24;97807.75;;;19.64;100.00
20115;BME280;10218;42.874;25.320;2023-09-07T05:56:51;97814.13;;;19.83;100.00
20115;BME280;10218;42.874;25.320;2023-09-07T05:59:18;97803.28;;;19.90;100.00
20115;BME280;10218;42.874;25.320;2023-09-07T06:01:46;97809.31;;;20.30;100.00
20115;BME280;10218;42.874;25.320;2023-09-07T06:04:14;97808.50;;;20.23;100.00
20115;BME280;10218;42.874;25.320;2023-09-07T06:06:41;97816.44;;;20.24;100.00
20115;BME280;10218;42.874;25.320;2023-09-07T06:09:08;97816.25;;;20.57;100.00
20115;BME280;10218;42.874;25.320;2023-09-07T06:11:35;97811.84;;;20.25;100.00
20115;BME280;10218;42.874;25.320;2023-09-07T06:14:03;97810.41;;;20.60;100.00
20115;BME280;10218;42.874;25.320;2023-09-07T06:16:30;97809.88;;;20.76;100.00
20115;BME280;10218;42.874;25.320;2023-09-07T06:18:58;97801.56;;;20.96;100.00
20115;BME280;10218;42.874;25.320;2023-09-07T06:21:25;97792.94;;;21.24;100.00
20115;BME280;10218;42.874;25.320;2023-09-07T06:23:52;97801.66;;;21.51;100.00
20115;BME280;10218;42.874;25.320;2023-09-07T06:26:19;97798.31;;;21.85;100.00
20115;BME280;10218;42.874;25.320;2023-09-07T06:28:46;97805.97;;;21.95;100.00
20115;BME280;10218;42.874;25.320;2023-09-07T06:31:13;97809.44;;;22.61;100.00
20115;BME280;10218;42.874;25.320;2023-09-07T06:33:42;97806.94;;;22.18;100.00
20115;BME280;10218;42.874;25.320;2023-09-07T06:36:09;97806.81;;;22.13;100.00
20115;BME280;10218;42.874;25.320;2023-09-07T06:38:36;97790.75;;;22.24;100.00
20115;BME280;10218;42.874;25.320;2023-09-07T06:41:04;97809.97;;;22.70;100.00
20115;BME280;10218;42.874;25.320;2023-09-07T06:43:31;97812.59;;;22.77;100.00
20115;BME280;10218;42.874;25.320;2023-09-07T06:46:06;97814.59;;;22.81;100.00
20115;BME280;10218;42.874;25.320;2023-09-07T06:48:35;97813.81;;;23.04;100.00
20115;BME280;10218;42.874;25.320;2023-09-07T06:51:03;97811.81;;;23.69;100.00
20115;BME280;10218;42.874;25.320;2023-09-07T06:53:31;97811.31;;;22.79;100.00
20115;BME280;10218;42.874;25.320;2023-09-07T06:56:07;97813.34;;;23.07;100.00
20115;BME280;10218;42.874;25.320;2023-09-07T06:58:40;97812.78;;;24.15;100.00
20115;BME280;10218;42.874;25.320;2023-09-07T07:01:07;97812.34;;;23.95;100.00
20115;BME280;10218;42.874;25.320;2023-09-07T07:03:34;97817.06;;;24.22;100.00
20115;BME280;10218;42.874;25.320;2023-09-07T07:06:02;97808.66;;;24.12;100.00
20115;BME280;10218;42.874;25.320;2023-09-07T07:08:29;97807.19;;;23.70;100.00
20115;BME280;10218;42.874;25.320;2023-09-07T07:10:56;97818.06;;;25.06;100.00
20115;BME280;10218;42.874;25.320;2023-09-07T07:13:24;97816.16;;;24.62;100.00
20115;BME280;10218;42.874;25.320;2023-09-07T07:15:51;97813.19;;;24.63;100.00
20115;BME280;10218;42.874;25.320;2023-09-07T07:18:18;97813.34;;;24.57;100.00
20115;BME280;10218;42.874;25.320;2023-09-07T07:20:45;97810.75;;;24.95;100.00
20115;BME280;10218;42.874;25.320;2023-09-07T07:23:13;97811.50;;;25.07;100.00
20115;BME280;10218;42.874;25.320;2023-09-07T07:25:40;97805.22;;;25.07;100.00
20115;BME280;10218;42.874;25.320;2023-09-07T07:28:07;97785.13;;;24.11;100.00
20115;BME280;10218;42.874;25.320;2023-09-07T07:30:38;97804.34;;;25.40;100.00
20115;BME280;10218;42.874;25.320;2023-09-07T07:33:07;97802.56;;;25.29;100.00
20115;BME280;10218;42.874;25.320;2023-09-07T07:35:35;97806.91;;;25.63;100.00
20115;BME280;10218;42.874;25.320;2023-09-07T07:38:03;97806.66;;;25.86;100.00
20115;BME280;10218;42.874;25.320;2023-09-07T07:40:31;97810.41;;;25.42;100.00
20115;BME280;10218;42.874;25.320;2023-09-07T07:42:59;97806.87;;;24.91;100.00
20115;BME280;10218;42.874;25.320;2023-09-07T07:45:26;97802.31;;;25.13;100.00
20115;BME280;10218;42.874;25.320;2023-09-07T07:47:53;97809.12;;;24.66;100.00
20115;BME280;10218;42.874;25.320;2023-09-07T07:50:21;97803.47;;;25.18;100.00
20115;BME280;10218;42.874;25.320;2023-09-07T07:52:49;97808.34;;;25.87;100.00
20115;BME280;10218;42.874;25.320;2023-09-07T07:55:16;97793.16;;;25.58;100.00
20115;BME280;10218;42.874;25.320;2023-09-07T07:57:44;97797.56;;;25.81;100.00
20115;BME280;10218;42.874;25.320;2023-09-07T08:00:12;97800.63;;;26.28;100.00
20115;BME280;10218;42.874;25.320;2023-09-07T08:02:39;97809.41;;;25.48;100.00
20115;BME280;10218;42.874;25.320;2023-09-07T08:05:07;97807.69;;;26.46;100.00
20115;BME280;10218;42.874;25.320;2023-09-07T08:07:34;97801.91;;;26.96;100.00
20115;BME280;10218;42.874;25.320;2023-09-07T08:10:01;97803.06;;;26.78;100.00
20115;BME280;10218;42.874;25.320;2023-09-07T08:12:30;97805.56;;;26.53;100.00
20115;BME280;10218;42.874;25.320;2023-09-07T08:14:57;97809.94;;;26.27;100.00
20115;BME280;10218;42.874;25.320;2023-09-07T08:17:24;97807.50;;;27.11;98.54
20115;BME280;10218;42.874;25.320;2023-09-07T08:19:53;97783.19;;;26.61;100.00
20115;BME280;10218;42.874;25.320;2023-09-07T08:22:23;97802.44;;;27.30;100.00
20115;BME280;10218;42.874;25.320;2023-09-07T08:24:50;97802.31;;;27.14;100.00
20115;BME280;10218;42.874;25.320;2023-09-07T08:27:19;97803.88;;;27.37;100.00
20115;BME280;10218;42.874;25.320;2023-09-07T08:29:48;97799.91;;;27.23;93.99
20115;BME280;10218;42.874;25.320;2023-09-07T08:32:18;97795.75;;;27.52;87.73
20115;BME280;10218;42.874;25.320;2023-09-07T08:34:45;97797.19;;;26.37;93.25
20115;BME280;10218;42.874;25.320;2023-09-07T08:37:12;97799.50;;;26.77;94.48
20115;BME280;10218;42.874;25.320;2023-09-07T08:39:39;97800.38;;;27.10;96.88
20115;BME280;10218;42.874;25.320;2023-09-07T08:42:07;97792.34;;;27.82;93.52
20115;BME280;10218;42.874;25.320;2023-09-07T08:44:36;97789.50;;;28.24;92.40
20115;BME280;10218;42.874;25.320;2023-09-07T08:47:04;97786.94;;;28.95;74.81
20115;BME280;10218;42.874;25.320;2023-09-07T08:49:33;97793.84;;;30.23;70.34
20115;BME280;10218;42.874;25.320;2023-09-07T08:52:02;97790.41;;;29.87;68.35
20115;BME280;10218;42.874;25.320;2023-09-07T08:54:30;97789.94;;;30.34;68.75
20115;BME280;10218;42.874;25.320;2023-09-07T08:57:01;97789.69;;;29.15;75.17
20115;BME280;10218;42.874;25.320;2023-09-07T08:59:32;97784.06;;;29.86;66.42
20115;BME280;10218;42.874;25.320;2023-09-07T09:02:00;97788.88;;;28.84;77.97
20115;BME280;10218;42.874;25.320;2023-09-07T09:04:27;97788.47;;;28.45;78.93
20115;BME280;10218;42.874;25.320;2023-09-07T09:06:56;97786.59;;;30.42;68.87
20115;BME280;10218;42.874;25.320;2023-09-07T09:09:25;97790.56;;;30.21;64.02
20115;BME280;10218;42.874;25.320;2023-09-07T09:11:52;97787.75;;;30.31;61.31
20115;BME280;10218;42.874;25.320;2023-09-07T09:14:19;97789.66;;;30.35;60.68
20115;BME280;10218;42.874;25.320;2023-09-07T09:16:50;97782.78;;;30.28;68.25
20115;BME280;10218;42.874;25.320;2023-09-07T09:19:17;97772.22;;;29.96;65.71
20115;BME280;10218;42.874;25.320;2023-09-07T09:21:45;97777.38;;;31.34;56.98
20115;BME280;10218;42.874;25.320;2023-09-07T09:24:12;97776.03;;;30.59;60.68
20115;BME280;10218;42.874;25.320;2023-09-07T09:26:41;97776.88;;;30.93;54.51
20115;BME280;10218;42.874;25.320;2023-09-07T09:29:09;97784.81;;;31.05;53.39
20115;BME280;10218;42.874;25.320;2023-09-07T09:31:37;97769.69;;;31.03;60.89
20115;BME280;10218;42.874;25.320;2023-09-07T09:34:04;97773.88;;;30.46;57.72
20115;BME280;10218;42.874;25.320;2023-09-07T09:36:35;97768.66;;;29.90;55.40
20115;BME280;10218;42.874;25.320;2023-09-07T09:39:03;97760.72;;;31.16;51.04
20115;BME280;10218;42.874;25.320;2023-09-07T09:41:32;97760.22;;;30.26;53.61
20115;BME280;10218;42.874;25.320;2023-09-07T09:44:02;97762.00;;;31.57;51.22
20115;BME280;10218;42.874;25.320;2023-09-07T09:46:32;97763.78;;;30.75;55.03
20115;BME280;10218;42.874;25.320;2023-09-07T09:48:59;97761.25;;;31.18;55.18
20115;BME280;10218;42.874;25.320;2023-09-07T09:51:27;97757.50;;;31.04;50.16
20115;BME280;10218;42.874;25.320;2023-09-07T09:53:56;97753.13;;;30.58;49.87
20115;BME280;10218;42.874;25.320;2023-09-07T09:56:23;97749.19;;;31.37;49.87
20115;BME280;10218;42.874;25.320;2023-09-07T09:58:50;97747.06;;;30.95;49.56
20115;BME280;10218;42.874;25.320;2023-09-07T10:01:17;97744.66;;;30.50;49.80
20115;BME280;10218;42.874;25.320;2023-09-07T10:03:46;97754.75;;;31.61;48.58
20115;BME280;10218;42.874;25.320;2023-09-07T10:06:28;97749.47;;;31.36;47.58
20115;BME280;10218;42.874;25.320;2023-09-07T10:09:01;97739.50;;;30.77;48.72
20115;BME280;10218;42.874;25.320;2023-09-07T10:11:31;97740.56;;;31.15;48.77
20115;BME280;10218;42.874;25.320;2023-09-07T10:14:01;97729.16;;;31.79;52.19
20115;BME280;10218;42.874;25.320;2023-09-07T10:16:43;97737.22;;;31.47;49.04
20115;BME280;10218;42.874;25.320;2023-09-07T10:19:29;97736.31;;;31.28;47.00
20115;BME280;10218;42.874;25.320;2023-09-07T10:21:56;97729.00;;;31.66;45.24
20115;BME280;10218;42.874;25.320;2023-09-07T10:24:30;97736.66;;;31.98;40.86
20115;BME280;10218;42.874;25.320;2023-09-07T10:27:04;97736.41;;;31.70;43.61
20115;BME280;10218;42.874;25.320;2023-09-07T10:29:42;97744.50;;;31.38;43.97
20115;BME280;10218;42.874;25.320;2023-09-07T10:32:10;97736.87;;;31.54;41.46
20115;BME280;10218;42.874;25.320;2023-09-07T10:34:39;97732.97;;;32.26;42.43
20115;BME280;10218;42.874;25.320;2023-09-07T10:37:13;97728.72;;;32.15;40.14
20115;BME280;10218;42.874;25.320;2023-09-07T10:39:43;97735.47;;;32.04;44.06
20115;BME280;10218;42.874;25.320;2023-09-07T10:42:23;97727.06;;;32.51;43.65
20115;BME280;10218;42.874;25.320;2023-09-07T10:44:51;97719.03;;;33.06;41.71
20115;BME280;10218;42.874;25.320;2023-09-07T10:47:18;97715.13;;;31.95;46.20
20115;BME280;10218;42.874;25.320;2023-09-07T10:49:45;97716.91;;;32.84;40.52
20115;BME280;10218;42.874;25.320;2023-09-07T10:52:13;97722.47;;;32.65;42.81
20115;BME280;10218;42.874;25.320;2023-09-07T10:54:40;97720.88;;;32.41;41.36
20115;BME280;10218;42.874;25.320;2023-09-07T10:57:12;97718.78;;;33.21;42.78
20115;BME280;10218;42.874;25.320;2023-09-07T10:59:45;97720.66;;;31.95;43.46
20115;BME280;10218;42.874;25.320;2023-09-07T11:02:13;97719.69;;;32.98;40.30
20115;BME280;10218;42.874;25.320;2023-09-07T11:04:42;97713.81;;;32.11;43.97
20115;BME280;10218;42.874;25.320;2023-09-07T11:07:10;97698.84;;;31.22;50.41
20115;BME280;10218;42.874;25.320;2023-09-07T11:09:41;97709.13;;;32.86;43.09
20115;BME280;10218;42.874;25.320;2023-09-07T11:12:13;97708.13;;;32.96;42.09
20115;BME280;10218;42.874;25.320;2023-09-07T11:14:40;97692.37;;;32.78;43.68
20115;BME280;10218;42.874;25.320;2023-09-07T11:17:08;97688.53;;;30.70;50.19
20115;BME280;10218;42.874;25.320;2023-09-07T11:19:36;97684.41;;;29.74;59.53
20115;BME280;10218;42.874;25.320;2023-09-07T11:22:03;97683.87;;;29.62;54.88
20115;BME280;10218;42.874;25.320;2023-09-07T11:24:32;97691.03;;;31.76;47.87
20115;BME280;10218;42.874;25.320;2023-09-07T11:27:00;97683.50;;;32.43;54.26
20115;BME280;10218;42.874;25.320;2023-09-07T11:29:27;97686.22;;;32.06;47.30
20115;BME280;10218;42.874;25.320;2023-09-07T11:32:07;97686.53;;;32.04;47.19
20115;BME280;10218;42.874;25.320;2023-09-07T11:34:46;97686.03;;;31.31;49.25
20115;BME280;10218;42.874;25.320;2023-09-07T11:37:14;97682.25;;;30.59;51.45
20115;BME280;10218;42.874;25.320;2023-09-07T11:39:41;97686.59;;;29.72;57.86
20115;BME280;10218;42.874;25.320;2023-09-07T11:42:08;97672.25;;;29.80;58.18
20115;BME280;10218;42.874;25.320;2023-09-07T11:44:35;97677.34;;;29.43;53.45
20115;BME280;10218;42.874;25.320;2023-09-07T11:47:03;97669.19;;;28.52;61.31
20115;BME280;10218;42.874;25.320;2023-09-07T11:49:32;97674.22;;;30.24;57.88
20115;BME280;10218;42.874;25.320;2023-09-07T11:51:59;97670.72;;;30.13;51.65
20115;BME280;10218;42.874;25.320;2023-09-07T11:54:27;97671.00;;;30.11;52.68
20115;BME280;10218;42.874;25.320;2023-09-07T11:56:54;97674.44;;;28.88;65.44
20115;BME280;10218;42.874;25.320;2023-09-07T11:59:21;97670.63;;;29.74;56.42
20115;BME280;10218;42.874;25.320;2023-09-07T12:01:49;97651.38;;;30.91;58.68
20115;BME280;10218;42.874;25.320;2023-09-07T12:04:16;97653.25;;;30.95;48.63
20115;BME280;10218;42.874;25.320;2023-09-07T12:06:43;97656.41;;;31.84;51.09
20115;BME280;10218;42.874;25.320;2023-09-07T12:09:10;97647.44;;;29.90;51.69
20115;BME280;10218;42.874;25.320;2023-09-07T12:11:38;97641.91;;;29.16;56.72
20115;BME280;10218;42.874;25.320;2023-09-07T12:14:05;97648.81;;;29.13;61.26
20115;BME280;10218;42.874;25.320;2023-09-07T12:16:32;97649.91;;;29.07;64.72
20115;BME280;10218;42.874;25.320;2023-09-07T12:18:59;97649.12;;;28.36;75.18
20115;BME280;10218;42.874;25.320;2023-09-07T12:21:26;97652.75;;;30.21;64.37
20115;BME280;10218;42.874;25.320;2023-09-07T12:23:53;97647.97;;;29.18;59.17
20115;BME280;10218;42.874;25.320;2023-09-07T12:26:20;97649.62;;;29.88;58.45
20115;BME280;10218;42.874;25.320;2023-09-07T12:28:48;97638.66;;;29.04;62.00
20115;BME280;10218;42.874;25.320;2023-09-07T12:31:15;97646.87;;;30.71;55.32
20115;BME280;10218;42.874;25.320;2023-09-07T12:33:42;97634.88;;;30.13;57.75
20115;BME280;10218;42.874;25.320;2023-09-07T12:36:10;97625.75;;;30.85;54.31
20115;BME280;10218;42.874;25.320;2023-09-07T12:38:38;97634.34;;;31.36;46.06
20115;BME280;10218;42.874;25.320;2023-09-07T12:41:05;97632.59;;;32.07;43.05
20115;BME280;10218;42.874;25.320;2023-09-07T12:43:33;97634.44;;;32.67;39.88
20115;BME280;10218;42.874;25.320;2023-09-07T12:46:00;97629.03;;;33.49;37.23
20115;BME280;10218;42.874;25.320;2023-09-07T12:48:27;97640.06;;;32.44;39.31